Time;durP1;ratioP1;P1;durP2;ratioP2;P2;SDS_P1;SDS_P2;PMS_P1;PMS_P2;Temp;Humidity;BMP_temperature;BMP_pressure;BME280_temperature;BME280_humidity;BME280_pressure;Samples;Min_cycle;Max_cycle;Signal;HPM_P1;HPM_P2
2023/11/26 00:04:55;;;;;;;23.60;15.00;;;;;;;0.47;87.70;97508.92;226263;1272;22584;-74
2023/11/26 00:09:58;;;;;;;32.00;21.00;;;;;;;0.50;87.71;97510.20;226137;1276;22547;-73
2023/11/26 00:15:00;;;;;;;27.60;16.50;;;;;;;0.53;87.78;97512.88;226229;1275;22536;-74
2023/11/26 00:20:02;;;;;;;24.40;15.80;;;;;;;0.52;87.69;97516.61;226235;1275;22544;-74
2023/11/26 00:25:06;;;;;;;27.60;15.30;;;;;;;0.50;87.51;97526.80;226206;1272;23123;-74
2023/11/26 00:30:09;;;;;;;24.90;15.80;;;;;;;0.49;87.72;97523.13;226672;1273;22565;-75
2023/11/26 00:35:12;;;;;;;24.70;15.40;;;;;;;0.48;87.51;97530.65;226279;1275;22540;-74
2023/11/26 00:40:15;;;;;;;26.90;16.50;;;;;;;0.47;87.46;97532.66;226188;1269;22578;-74
2023/11/26 00:45:18;;;;;;;25.80;16.70;;;;;;;0.47;87.55;97534.80;226203;1274;22548;-74
2023/11/26 00:50:20;;;;;;;25.60;16.20;;;;;;;0.48;87.56;97534.45;226314;1276;22691;-74
2023/11/26 00:55:23;;;;;;;23.80;15.30;;;;;;;0.51;87.58;97536.10;226320;1274;22547;-74
2023/11/26 01:00:27;;;;;;;21.80;15.10;;;;;;;0.52;87.54;97543.11;226077;1276;22536;-74
2023/11/26 01:05:29;;;;;;;24.90;15.60;;;;;;;0.52;87.67;97547.24;226324;1272;22566;-74
2023/11/26 01:10:31;;;;;;;25.30;15.50;;;;;;;0.52;87.63;97546.91;226297;1269;22543;-74
2023/11/26 01:15:33;;;;;;;23.90;16.40;;;;;;;0.48;87.54;97552.48;226084;1276;25485;-74
2023/11/26 01:20:36;;;;;;;25.00;15.60;;;;;;;0.48;87.72;97557.34;226253;1275;22551;-74
2023/11/26 01:25:39;;;;;;;26.50;15.60;;;;;;;0.47;87.67;97558.50;226193;1272;25265;-74
2023/11/26 01:30:41;;;;;;;19.80;13.20;;;;;;;0.44;87.56;97565.06;226353;1276;22632;-74
2023/11/26 01:35:44;;;;;;;18.90;12.00;;;;;;;0.39;87.45;97563.97;226318;1272;25284;-74
2023/11/26 01:40:46;;;;;;;14.20;8.50;;;;;;;0.34;87.64;97568.94;226194;1276;22655;-74
2023/11/26 01:45:49;;;;;;;14.30;8.20;;;;;;;0.26;87.45;97577.86;226318;1272;22580;-74
2023/11/26 01:50:51;;;;;;;10.50;7.10;;;;;;;0.19;87.63;97581.73;226218;1276;22551;-74
2023/11/26 01:55:53;;;;;;;7.80;6.20;;;;;;;0.14;87.71;97586.05;226110;1275;24269;-74
2023/11/26 02:00:57;;;;;;;8.70;5.70;;;;;;;0.11;87.61;97594.89;226999;1276;22563;-74
2023/11/26 02:06:00;;;;;;;6.00;4.40;;;;;;;0.07;87.65;97602.33;226270;1276;22559;-74
2023/11/26 02:11:03;;;;;;;4.80;3.50;;;;;;;0.02;87.56;97609.06;226027;1276;22581;-74
2023/11/26 02:16:06;;;;;;;4.20;2.60;;;;;;;-0.02;87.53;97609.99;226129;1275;22543;-74
2023/11/26 02:21:08;;;;;;;4.70;3.10;;;;;;;-0.08;87.37;97614.32;226167;1272;22720;-73
2023/11/26 02:26:10;;;;;;;5.10;3.40;;;;;;;-0.11;87.52;97620.52;226244;1272;23013;-73
2023/11/26 02:31:13;;;;;;;5.30;3.50;;;;;;;-0.12;87.67;97619.55;226098;1275;22538;-74
2023/11/26 02:36:15;;;;;;;5.00;3.60;;;;;;;-0.12;87.77;97624.08;226265;1272;22560;-74
2023/11/26 02:41:18;;;;;;;7.00;3.90;;;;;;;-0.13;87.73;97628.56;226293;1273;22565;-74
2023/11/26 02:46:21;;;;;;;4.50;3.60;;;;;;;-0.14;87.78;97629.66;226259;1276;22541;-73
2023/11/26 02:51:23;;;;;;;5.10;4.00;;;;;;;-0.15;87.79;97634.96;226076;1275;22599;-73
2023/11/26 02:56:25;;;;;;;5.20;3.70;;;;;;;-0.19;87.71;97640.73;226188;1275;22548;-74
2023/11/26 03:01:29;;;;;;;5.40;3.70;;;;;;;-0.21;87.68;97647.46;226231;1275;22548;-74
2023/11/26 03:06:32;;;;;;;4.70;3.70;;;;;;;-0.22;87.62;97655.59;226162;1275;22514;-74
2023/11/26 03:16:55;;;;;;;4.30;3.20;;;;;;;-0.28;87.80;97666.52;226198;1275;23904;-74
2023/11/26 03:21:59;;;;;;;5.10;3.50;;;;;;;-0.29;87.78;97672.84;226014;1276;23080;-74
2023/11/26 03:27:05;;;;;;;4.30;3.10;;;;;;;-0.31;87.80;97670.83;226103;1275;22557;-74
2023/11/26 03:32:07;;;;;;;4.80;3.60;;;;;;;-0.31;87.92;97667.41;226674;1266;25409;-74
2023/11/26 03:37:10;;;;;;;5.40;4.20;;;;;;;-0.32;87.70;97669.02;226254;1276;22839;-74
2023/11/26 03:42:16;;;;;;;4.50;3.90;;;;;;;-0.36;87.82;97671.23;226038;1275;22672;-74
2023/11/26 03:47:29;;;;;;;5.60;3.90;;;;;;;-0.46;87.85;97678.77;226219;1272;22536;-74
2023/11/26 03:52:32;;;;;;;5.40;4.30;;;;;;;-0.53;87.81;97681.21;226289;1273;23802;-74
2023/11/26 03:57:36;;;;;;;7.70;4.80;;;;;;;-0.59;87.72;97683.88;226236;1266;22551;-74
2023/11/26 04:02:39;;;;;;;7.70;4.90;;;;;;;-0.60;87.76;97687.08;226194;1276;22554;-74
2023/11/26 04:07:42;;;;;;;7.20;5.10;;;;;;;-0.58;87.92;97697.55;226179;1276;22540;-74
2023/11/26 04:12:44;;;;;;;7.30;5.70;;;;;;;-0.56;87.90;97708.77;226063;1275;22539;-74
2023/11/26 04:17:46;;;;;;;9.10;5.90;;;;;;;-0.56;87.88;97718.98;226050;1276;23216;-74
2023/11/26 04:22:48;;;;;;;8.00;6.40;;;;;;;-0.55;87.85;97728.45;226168;1275;22691;-74
2023/11/26 04:27:50;;;;;;;10.40;7.10;;;;;;;-0.55;87.62;97734.63;226225;1276;22547;-74
2023/11/26 04:32:53;;;;;;;8.50;6.10;;;;;;;-0.55;87.46;97741.70;226278;1272;22555;-74
2023/11/26 04:37:56;;;;;;;10.90;7.40;;;;;;;-0.54;87.52;97748.01;226251;1272;22647;-74
2023/11/26 04:42:58;;;;;;;9.50;7.30;;;;;;;-0.52;87.71;97749.94;226252;1276;22547;-74
2023/11/26 04:48:01;;;;;;;9.80;6.70;;;;;;;-0.51;87.34;97760.42;226229;1270;22547;-74
2023/11/26 04:53:04;;;;;;;9.60;6.90;;;;;;;-0.53;86.93;97762.14;226156;1276;24231;-74
2023/11/26 04:58:06;;;;;;;9.90;7.50;;;;;;;-0.55;86.91;97772.72;226251;1276;22566;-73
2023/11/26 05:03:08;;;;;;;10.00;7.10;;;;;;;-0.58;86.86;97778.81;226217;1275;22523;-74
2023/11/26 05:08:11;;;;;;;12.40;7.30;;;;;;;-0.58;87.10;97790.23;226203;1276;22610;-74
2023/11/26 05:13:13;;;;;;;10.90;7.70;;;;;;;-0.59;86.56;97799.48;226124;1271;22547;-74
2023/11/26 05:18:15;;;;;;;9.90;7.70;;;;;;;-0.62;86.36;97807.97;226248;1276;24228;-74
2023/11/26 05:23:18;;;;;;;8.40;6.50;;;;;;;-0.66;86.50;97811.42;226256;1273;22671;-74
2023/11/26 05:28:20;;;;;;;9.90;7.40;;;;;;;-0.67;86.17;97820.16;226144;1276;22926;-74
2023/11/26 05:33:22;;;;;;;10.40;7.20;;;;;;;-0.68;86.08;97827.86;226174;1276;22547;-74
2023/11/26 05:38:25;;;;;;;12.80;7.50;;;;;;;-0.70;86.27;97827.86;226213;1264;22595;-74
2023/11/26 05:43:27;;;;;;;8.70;6.80;;;;;;;-0.77;86.07;97841.95;226171;1276;22566;-74
2023/11/26 05:48:29;;;;;;;10.60;7.10;;;;;;;-0.85;85.89;97845.28;226204;1271;22604;-74
2023/11/26 05:53:32;;;;;;;10.90;7.80;;;;;;;-0.90;86.04;97846.80;226170;1276;23678;-74
2023/11/26 05:58:34;;;;;;;13.30;8.50;;;;;;;-0.99;86.02;97854.86;226183;1276;22744;-74
2023/11/26 06:03:37;;;;;;;13.40;8.80;;;;;;;-1.11;86.06;97861.02;226126;1276;22544;-73
2023/11/26 06:08:39;;;;;;;13.40;8.70;;;;;;;-1.25;86.06;97869.34;226087;1276;22618;-73
2023/11/26 06:13:41;;;;;;;14.40;9.50;;;;;;;-1.36;86.26;97877.36;226203;1271;22579;-75
2023/11/26 06:18:43;;;;;;;15.10;9.80;;;;;;;-1.44;86.55;97894.33;226199;1273;24346;-77
2023/11/26 06:23:45;;;;;;;23.40;12.70;;;;;;;-1.48;86.26;97910.09;226064;1275;22703;-75
2023/11/26 06:28:47;;;;;;;17.60;11.20;;;;;;;-1.50;86.57;97917.79;226045;1276;22564;-75
2023/11/26 06:33:51;;;;;;;11.50;8.50;;;;;;;-1.44;86.51;97918.70;226128;1276;22554;-75
2023/11/26 06:38:55;;;;;;;13.90;9.60;;;;;;;-1.36;86.47;97920.28;226277;1274;22546;-75
2023/11/26 06:44:00;;;;;;;15.70;10.60;;;;;;;-1.33;86.31;97929.08;226210;1276;22668;-75
2023/11/26 06:49:03;;;;;;;12.60;9.20;;;;;;;-1.29;86.41;97938.30;226143;1274;22562;-75
2023/11/26 06:54:05;;;;;;;12.30;8.10;;;;;;;-1.27;86.54;97948.95;226021;1276;23063;-75
2023/11/26 06:59:07;;;;;;;12.10;8.00;;;;;;;-1.24;86.39;97955.77;226061;1274;22627;-75
2023/11/26 07:04:10;;;;;;;11.90;8.90;;;;;;;-1.21;86.32;97967.42;226122;1274;22536;-75
2023/11/26 07:09:15;;;;;;;12.60;8.60;;;;;;;-1.16;86.49;97974.05;225924;1276;25406;-75
2023/11/26 07:14:17;;;;;;;10.90;8.40;;;;;;;-1.12;86.44;97979.03;226066;1276;22671;-75
2023/11/26 07:19:20;;;;;;;10.10;7.90;;;;;;;-1.01;86.17;97975.75;226112;1276;23205;-75
2023/11/26 07:24:22;;;;;;;9.10;6.90;;;;;;;-0.95;86.21;97981.39;226120;1264;22649;-75
2023/11/26 07:29:25;;;;;;;9.50;7.10;;;;;;;-1.00;85.73;97987.69;226137;1276;22554;-75
2023/11/26 07:34:27;;;;;;;8.90;6.00;;;;;;;-0.98;85.64;98003.27;226186;1273;25332;-75
2023/11/26 07:39:29;;;;;;;10.50;7.30;;;;;;;-0.80;85.61;98010.95;226088;1276;22550;-76
2023/11/26 07:44:32;;;;;;;10.00;6.80;;;;;;;-0.59;85.64;98017.39;226173;1274;22551;-77
2023/11/26 07:49:36;;;;;;;10.40;6.60;;;;;;;-0.46;85.35;98019.01;226181;1271;25324;-75
2023/11/26 07:54:38;;;;;;;7.70;5.30;;;;;;;-0.36;84.90;98028.13;226090;1276;24230;-75
2023/11/26 07:59:43;;;;;;;7.50;5.20;;;;;;;-0.31;84.35;98030.13;226096;1274;22541;-76
2023/11/26 08:04:48;;;;;;;5.00;4.20;;;;;;;-0.27;83.97;98032.70;226109;1275;25505;-75
2023/11/26 08:09:51;;;;;;;5.70;4.50;;;;;;;-0.28;83.56;98031.55;226172;1272;22548;-74
2023/11/26 08:14:53;;;;;;;5.10;4.10;;;;;;;-0.37;83.53;98035.11;226040;1276;22550;-74
2023/11/26 08:19:55;;;;;;;6.30;4.70;;;;;;;-0.38;82.93;98047.98;226023;1276;22547;-74
2023/11/26 08:25:02;;;;;;;6.40;5.20;;;;;;;-0.25;83.16;98054.83;226081;1276;22551;-74
2023/11/26 08:30:12;;;;;;;6.40;4.20;;;;;;;-0.05;83.37;98052.13;226066;1275;22606;-74
2023/11/26 08:35:16;;;;;;;7.20;4.80;;;;;;;0.15;82.82;98044.05;226451;1276;22562;-75
2023/11/26 08:40:19;;;;;;;5.20;4.40;;;;;;;0.30;82.46;98051.31;226033;1275;22603;-76
2023/11/26 08:45:22;;;;;;;6.80;5.00;;;;;;;0.32;81.91;98050.61;226111;1274;22574;-74
2023/11/26 08:50:24;;;;;;;6.00;4.10;;;;;;;0.23;81.66;98054.89;226010;1276;25940;-75
2023/11/26 08:55:26;;;;;;;6.50;4.30;;;;;;;0.17;81.36;98059.30;226093;1265;22707;-74
2023/11/26 09:00:29;;;;;;;3.00;2.70;;;;;;;0.14;81.67;98072.00;226124;1276;25297;-75
2023/11/26 09:05:31;;;;;;;3.90;2.20;;;;;;;0.16;81.18;98079.28;226115;1276;22554;-75
2023/11/26 09:10:34;;;;;;;3.80;2.50;;;;;;;0.13;80.68;98079.22;225999;1276;22577;-75
2023/11/26 09:15:38;;;;;;;2.70;2.30;;;;;;;0.15;80.67;98082.33;226324;1276;22601;-76
2023/11/26 09:20:41;;;;;;;3.60;2.80;;;;;;;0.19;80.57;98085.23;226138;1270;23275;-75
2023/11/26 09:25:44;;;;;;;3.10;2.30;;;;;;;0.19;80.56;98088.90;226151;1254;22964;-74
2023/11/26 09:30:49;;;;;;;4.20;2.80;;;;;;;0.16;80.58;98097.75;226114;1275;22587;-74
2023/11/26 09:35:52;;;;;;;4.60;2.80;;;;;;;0.25;80.95;98095.89;226074;1272;25365;-74
2023/11/26 09:40:54;;;;;;;6.70;4.50;;;;;;;0.42;80.86;98096.23;225988;1275;22827;-75
2023/11/26 09:45:56;;;;;;;4.40;3.00;;;;;;;0.58;80.56;98097.25;226127;1273;22563;-73
2023/11/26 09:50:59;;;;;;;3.90;2.40;;;;;;;0.71;80.09;98103.26;225927;1276;22555;-75
2023/11/26 09:56:04;;;;;;;3.20;2.30;;;;;;;0.74;79.29;98109.09;226103;1273;22539;-75
2023/11/26 10:01:07;;;;;;;2.80;2.10;;;;;;;0.68;79.00;98107.73;226081;1253;24466;-74
2023/11/26 10:06:10;;;;;;;2.20;1.80;;;;;;;0.60;78.89;98103.91;226769;1270;22589;-75
2023/11/26 10:11:23;;;;;;;6.10;3.50;;;;;;;0.50;79.01;98111.61;226134;1272;22562;-75
2023/11/26 10:16:31;;;;;;;3.20;2.40;;;;;;;0.37;79.11;98115.26;226142;1273;22554;-73
2023/11/26 10:21:49;;;;;;;4.30;2.80;;;;;;;0.28;78.92;98115.05;226029;1276;22544;-75
2023/11/26 10:26:54;;;;;;;5.10;2.80;;;;;;;0.21;78.77;98117.77;226171;1272;22536;-74
2023/11/26 10:32:01;;;;;;;2.50;2.20;;;;;;;0.08;78.73;98128.48;226118;1270;22562;-75
2023/11/26 10:37:20;;;;;;;3.20;2.60;;;;;;;-0.06;78.67;98135.14;226256;1269;25361;-75
2023/11/26 10:42:29;;;;;;;3.50;2.60;;;;;;;-0.15;79.31;98144.25;226245;1276;22579;-74
2023/11/26 10:47:35;;;;;;;3.90;3.20;;;;;;;-0.21;79.39;98146.50;226150;1269;25082;-75
2023/11/26 10:52:53;;;;;;;4.90;3.00;;;;;;;-0.26;79.36;98147.27;225943;1272;22571;-75
2023/11/26 10:58:02;;;;;;;6.40;3.20;;;;;;;-0.32;79.62;98151.82;226094;1272;22550;-75
2023/11/26 11:03:05;;;;;;;4.60;3.10;;;;;;;-0.34;79.43;98154.09;226118;1276;22547;-76
2023/11/26 11:08:08;;;;;;;4.00;3.40;;;;;;;-0.33;79.37;98155.18;226137;1266;22590;-75
2023/11/26 11:13:20;;;;;;;4.10;3.30;;;;;;;-0.26;79.46;98159.77;226218;1273;22654;-74
2023/11/26 11:18:25;;;;;;;4.70;3.60;;;;;;;-0.19;79.35;98167.24;226045;1276;22596;-75
2023/11/26 11:23:32;;;;;;;5.00;3.30;;;;;;;-0.16;79.34;98167.58;225955;1273;172914;-76
2023/11/26 11:28:47;;;;;;;2.50;2.30;;;;;;;-0.16;78.86;98167.89;226755;1256;22554;-75
2023/11/26 11:34:13;;;;;;;2.80;2.30;;;;;;;-0.16;78.30;98176.84;226150;1272;22551;-75
2023/11/26 11:39:27;;;;;;;3.30;2.10;;;;;;;-0.06;77.82;98174.23;225856;1276;25488;-74
2023/11/26 11:44:34;;;;;;;3.90;2.90;;;;;;;0.21;78.25;98180.44;225863;1273;25490;-75
2023/11/26 11:49:45;;;;;;;2.50;1.80;;;;;;;0.50;77.98;98174.73;226087;1273;22594;-75
2023/11/26 11:54:57;;;;;;;3.40;2.30;;;;;;;0.78;77.02;98173.34;226134;1273;22587;-75
2023/11/26 12:00:04;;;;;;;2.80;2.30;;;;;;;0.90;76.37;98179.17;226088;1261;22531;-76
2023/11/26 12:05:24;;;;;;;2.80;2.20;;;;;;;0.86;76.13;98172.80;225820;1276;22548;-75
2023/11/26 12:10:32;;;;;;;3.10;1.90;;;;;;;0.66;75.73;98178.77;226308;1272;22584;-75
2023/11/26 12:15:38;;;;;;;2.30;1.70;;;;;;;0.44;75.03;98180.41;226006;1276;22546;-75
2023/11/26 12:20:47;;;;;;;3.50;2.20;;;;;;;0.27;75.17;98188.04;226110;1273;22543;-75
2023/11/26 12:25:54;;;;;;;5.40;3.40;;;;;;;0.17;75.99;98200.19;226075;1276;24279;-76
2023/11/26 12:30:57;;;;;;;5.30;3.50;;;;;;;0.16;76.97;98203.45;225837;1276;22724;-75
2023/11/26 12:36:01;;;;;;;4.60;3.40;;;;;;;0.18;77.31;98199.98;226133;1257;25416;-75
2023/11/26 12:41:03;;;;;;;4.90;3.00;;;;;;;0.24;77.48;98200.11;226188;1269;22541;-74
2023/11/26 12:46:14;;;;;;;3.90;2.60;;;;;;;0.36;77.63;98197.16;226118;1276;22586;-76
2023/11/26 12:51:19;;;;;;;5.70;3.30;;;;;;;0.30;77.01;98195.16;225840;1276;22586;-76
2023/11/26 12:56:22;;;;;;;4.70;2.90;;;;;;;0.26;76.98;98201.11;225921;1272;22574;-75
2023/11/26 13:01:26;;;;;;;4.80;3.30;;;;;;;0.46;77.43;98200.73;225989;1276;22545;-75
2023/11/26 13:06:29;;;;;;;4.30;3.20;;;;;;;0.61;77.14;98203.17;225908;1275;22544;-75
2023/11/26 13:11:38;;;;;;;5.00;3.40;;;;;;;0.52;77.00;98204.50;226037;1275;22561;-75
2023/11/26 13:16:40;;;;;;;5.10;3.90;;;;;;;0.36;77.22;98214.94;226165;1276;24435;-76
2023/11/26 13:21:48;;;;;;;5.90;4.20;;;;;;;0.22;77.12;98213.43;226353;1276;22551;-75
2023/11/26 13:26:51;;;;;;;4.50;2.70;;;;;;;0.08;77.30;98211.03;226586;1273;22539;-75
2023/11/26 13:31:54;;;;;;;4.10;2.60;;;;;;;-0.05;76.44;98213.78;225962;1275;22604;-76
2023/11/26 13:36:56;;;;;;;4.40;2.80;;;;;;;-0.14;76.28;98225.27;226184;1274;23154;-77
2023/11/26 13:42:00;;;;;;;5.80;3.40;;;;;;;-0.27;76.45;98223.52;226192;1268;22712;-75
2023/11/26 13:47:05;;;;;;;5.80;3.80;;;;;;;-0.40;76.63;98231.23;226078;1272;22705;-74
2023/11/26 13:52:10;;;;;;;5.20;3.50;;;;;;;-0.46;76.92;98231.77;226088;1274;22748;-75
2023/11/26 13:57:16;;;;;;;8.90;4.50;;;;;;;-0.45;77.05;98234.62;226099;1267;22663;-74
2023/11/26 14:02:18;;;;;;;6.90;3.70;;;;;;;-0.48;77.27;98237.59;226215;1273;22553;-75
2023/11/26 14:07:20;;;;;;;4.70;3.60;;;;;;;-0.49;77.09;98227.55;225904;1276;22622;-75
2023/11/26 14:12:23;;;;;;;4.60;3.30;;;;;;;-0.54;77.09;98229.71;226166;1276;22561;-76
2023/11/26 14:17:25;;;;;;;5.90;3.50;;;;;;;-0.61;77.47;98234.66;226103;1274;22586;-75
2023/11/26 14:22:29;;;;;;;3.90;2.70;;;;;;;-0.67;77.58;98243.23;225945;1276;22599;-78
2023/11/26 14:27:33;;;;;;;5.30;3.60;;;;;;;-0.74;77.73;98246.23;226148;1273;22649;-75
2023/11/26 14:32:36;;;;;;;6.40;3.90;;;;;;;-0.79;78.10;98243.72;226102;1275;23035;-76
2023/11/26 14:37:40;;;;;;;7.20;4.40;;;;;;;-0.83;78.46;98250.10;225999;1276;22543;-75
2023/11/26 14:42:47;;;;;;;5.40;3.30;;;;;;;-0.87;78.40;98261.02;226128;1273;25453;-75
2023/11/26 14:47:49;;;;;;;7.10;4.20;;;;;;;-0.95;78.90;98260.66;226103;1272;23775;-75
2023/11/26 14:52:52;;;;;;;6.00;4.00;;;;;;;-1.06;79.08;98261.27;226122;1274;25352;-75
2023/11/26 14:57:55;;;;;;;8.70;4.60;;;;;;;-1.17;79.55;98260.43;226249;1276;22919;-75
2023/11/26 15:02:58;;;;;;;8.40;5.00;;;;;;;-1.25;79.52;98271.27;226069;1276;22577;-75
2023/11/26 15:08:01;;;;;;;8.90;4.90;;;;;;;-1.33;80.01;98269.56;226154;1272;22527;-73
2023/11/26 15:13:03;;;;;;;6.40;4.00;;;;;;;-1.37;80.11;98271.13;226135;1273;22644;-74
2023/11/26 15:18:05;;;;;;;6.40;4.30;;;;;;;-1.35;80.06;98269.92;226135;1272;22602;-74
2023/11/26 15:23:08;;;;;;;8.00;4.80;;;;;;;-1.31;80.28;98270.45;226144;1272;22547;-75
2023/11/26 15:28:11;;;;;;;11.30;5.80;;;;;;;-1.27;80.15;98269.77;226075;1276;22567;-75
2023/11/26 15:33:13;;;;;;;8.00;4.40;;;;;;;-1.23;80.11;98276.66;226116;1275;22540;-75
2023/11/26 15:38:15;;;;;;;6.00;3.30;;;;;;;-1.25;79.52;98274.90;226197;1269;25979;-74
2023/11/26 15:43:19;;;;;;;5.60;3.20;;;;;;;-1.29;79.44;98275.81;226024;1275;22561;-75
2023/11/26 15:48:27;;;;;;;6.50;3.60;;;;;;;-1.32;79.54;98275.70;226165;1275;22627;-75
2023/11/26 15:53:29;;;;;;;6.90;3.90;;;;;;;-1.34;79.51;98285.22;226157;1275;24977;-75
2023/11/26 15:58:32;;;;;;;7.70;4.00;;;;;;;-1.37;80.05;98293.23;226140;1275;22774;-74
2023/11/26 16:03:34;;;;;;;7.30;3.50;;;;;;;-1.42;79.88;98294.13;226208;1275;23097;-75
2023/11/26 16:08:38;;;;;;;5.40;3.40;;;;;;;-1.45;80.18;98298.36;226191;1276;22619;-75
2023/11/26 16:13:40;;;;;;;5.30;3.30;;;;;;;-1.46;80.46;98300.30;226515;1276;22682;-74
2023/11/26 16:18:42;;;;;;;8.80;3.70;;;;;;;-1.47;80.28;98301.26;226121;1274;24915;-75
2023/11/26 16:23:45;;;;;;;6.00;3.70;;;;;;;-1.50;80.49;98300.27;225985;1275;22553;-75
2023/11/26 16:28:47;;;;;;;7.90;3.90;;;;;;;-1.54;80.36;98300.42;225999;1276;22553;-74
2023/11/26 16:33:54;;;;;;;6.90;3.90;;;;;;;-1.57;80.44;98301.59;226202;1272;22555;-75
2023/11/26 16:38:57;;;;;;;6.70;3.90;;;;;;;-1.64;80.70;98302.80;226009;1276;22550;-76
2023/11/26 16:43:59;;;;;;;7.40;4.50;;;;;;;-1.75;80.60;98306.34;226078;1275;22552;-76
2023/11/26 16:49:02;;;;;;;8.50;4.30;;;;;;;-1.88;80.72;98309.90;226077;1276;22558;-75
2023/11/26 16:54:05;;;;;;;8.40;5.30;;;;;;;-1.99;80.73;98314.30;226168;1275;22547;-76
2023/11/26 16:59:07;;;;;;;9.80;6.10;;;;;;;-2.11;80.67;98315.17;226157;1272;22547;-76
2023/11/26 17:04:09;;;;;;;11.30;6.30;;;;;;;-2.20;81.06;98313.98;226129;1276;22538;-76
2023/11/26 17:09:12;;;;;;;16.70;10.40;;;;;;;-2.30;80.97;98310.85;226161;1276;22584;-74
2023/11/26 17:14:18;;;;;;;16.90;10.10;;;;;;;-2.42;80.93;98311.61;226294;1273;22692;-75
2023/11/26 17:19:22;;;;;;;13.00;7.70;;;;;;;-2.52;81.13;98311.00;226242;1272;22551;-75
2023/11/26 17:24:26;;;;;;;13.60;7.80;;;;;;;-2.61;81.36;98303.77;226213;1275;24259;-76
2023/11/26 17:29:28;;;;;;;15.60;10.10;;;;;;;-2.69;81.43;98305.59;226132;1275;22546;-76
2023/11/26 17:34:30;;;;;;;11.60;7.90;;;;;;;-2.76;81.38;98314.58;226299;1273;22579;-75
2023/11/26 17:39:37;;;;;;;12.70;7.70;;;;;;;-2.83;81.69;98317.89;226203;1273;22725;-76
2023/11/26 17:44:39;;;;;;;11.60;7.40;;;;;;;-2.89;82.01;98316.75;226161;1276;22565;-76
2023/11/26 17:49:45;;;;;;;11.60;7.60;;;;;;;-2.95;81.82;98322.38;226174;1259;22555;-76
2023/11/26 17:54:47;;;;;;;13.60;7.40;;;;;;;-3.03;82.20;98328.00;226275;1272;22650;-75
2023/11/26 17:59:50;;;;;;;14.20;6.40;;;;;;;-3.12;82.12;98333.80;226268;1263;22817;-76
2023/11/26 18:04:55;;;;;;;14.80;8.60;;;;;;;-3.19;82.39;98343.13;226295;1273;22629;-75
2023/11/26 18:10:00;;;;;;;17.20;9.60;;;;;;;-3.26;82.72;98342.08;226303;1272;22609;-75
2023/11/26 18:15:02;;;;;;;16.90;9.80;;;;;;;-3.31;83.09;98343.83;226286;1272;23012;-75
2023/11/26 18:20:07;;;;;;;19.10;10.70;;;;;;;-3.34;83.06;98345.77;226098;1275;23086;-75
2023/11/26 18:25:10;;;;;;;17.10;9.80;;;;;;;-3.31;83.48;98347.75;226371;1276;22731;-75
2023/11/26 18:30:13;;;;;;;16.40;8.60;;;;;;;-3.18;83.67;98341.86;226142;1276;22551;-75
2023/11/26 18:35:15;;;;;;;16.70;10.10;;;;;;;-3.09;83.54;98343.58;226178;1275;25005;-78
2023/11/26 18:40:17;;;;;;;13.20;7.80;;;;;;;-2.98;83.95;98351.52;226183;1275;26943;-75
2023/11/26 18:45:20;;;;;;;16.20;9.40;;;;;;;-2.89;83.51;98357.05;226037;1275;22724;-74
2023/11/26 18:50:22;;;;;;;19.90;10.50;;;;;;;-2.81;83.64;98357.70;226214;1276;23083;-75
2023/11/26 18:55:25;;;;;;;22.50;11.50;;;;;;;-2.74;83.33;98358.58;226167;1274;22601;-76
2023/11/26 19:00:27;;;;;;;26.80;12.70;;;;;;;-2.68;83.43;98354.81;226272;1272;22568;-77
2023/11/26 19:05:29;;;;;;;26.90;13.30;;;;;;;-2.63;82.96;98357.52;226139;1275;22533;-75
2023/11/26 19:10:31;;;;;;;27.40;14.30;;;;;;;-2.59;82.98;98359.80;225927;1276;22610;-76
2023/11/26 19:15:34;;;;;;;24.80;13.90;;;;;;;-2.52;83.00;98359.26;226269;1253;22551;-75
2023/11/26 19:20:37;;;;;;;31.20;15.00;;;;;;;-2.46;83.07;98353.31;226191;1272;22542;-75
2023/11/26 19:25:41;;;;;;;25.80;13.40;;;;;;;-2.40;82.89;98348.39;226195;1275;22544;-75
2023/11/26 19:30:43;;;;;;;27.40;12.40;;;;;;;-2.32;82.79;98353.43;226129;1275;22537;-75
2023/11/26 19:35:48;;;;;;;23.00;12.20;;;;;;;-2.23;82.78;98354.26;226145;1276;26136;-75
2023/11/26 19:40:52;;;;;;;21.30;11.70;;;;;;;-2.15;82.74;98354.84;226145;1275;22550;-75
2023/11/26 19:45:55;;;;;;;18.90;11.20;;;;;;;-2.10;82.54;98351.92;226262;1272;22547;-75
2023/11/26 19:50:57;;;;;;;21.10;11.40;;;;;;;-2.12;81.90;98345.13;226052;1275;24237;-75
2023/11/26 19:56:00;;;;;;;22.00;11.70;;;;;;;-2.10;81.92;98341.36;226127;1275;22550;-76
2023/11/26 20:01:04;;;;;;;21.10;10.50;;;;;;;-2.08;81.96;98341.77;226312;1275;22659;-73
2023/11/26 20:06:08;;;;;;;15.40;9.90;;;;;;;-2.10;81.84;98343.63;226256;1275;22553;-75
2023/11/26 20:11:11;;;;;;;28.20;14.60;;;;;;;-2.11;81.31;98339.77;226045;1276;22597;-75
2023/11/26 20:16:14;;;;;;;21.70;12.00;;;;;;;-2.15;81.45;98338.42;226254;1272;22595;-75
2023/11/26 20:21:17;;;;;;;18.80;10.20;;;;;;;-2.15;81.47;98334.46;226277;1275;22982;-76
2023/11/26 20:26:20;;;;;;;20.40;11.30;;;;;;;-2.12;81.42;98328.05;226064;1275;25604;-74
2023/11/26 20:31:26;;;;;;;19.30;10.60;;;;;;;-2.08;81.54;98328.95;226104;1275;26141;-75
2023/11/26 20:36:28;;;;;;;21.80;11.40;;;;;;;-2.06;81.61;98329.27;226295;1274;22629;-74
2023/11/26 20:41:31;;;;;;;20.80;12.00;;;;;;;-2.02;81.61;98324.50;226080;1275;22575;-75
2023/11/26 20:46:34;;;;;;;23.70;12.50;;;;;;;-1.96;81.35;98321.11;226122;1275;22547;-75
2023/11/26 20:51:37;;;;;;;26.40;14.30;;;;;;;-1.94;81.06;98320.73;226013;1276;23105;-75
2023/11/26 20:56:40;;;;;;;22.20;11.60;;;;;;;-1.90;81.32;98315.76;226103;1276;22564;-75
2023/11/26 21:01:46;;;;;;;23.20;12.40;;;;;;;-1.86;81.68;98316.45;226334;1272;23032;-74
2023/11/26 21:06:48;;;;;;;22.80;11.30;;;;;;;-1.81;81.18;98317.00;226207;1276;24571;-74
2023/11/26 21:11:51;;;;;;;16.10;9.80;;;;;;;-1.78;81.18;98319.29;226145;1275;22727;-76
2023/11/26 21:16:57;;;;;;;17.20;9.80;;;;;;;-1.76;81.17;98310.52;226114;1276;22648;-76
2023/11/26 21:21:59;;;;;;;17.90;9.80;;;;;;;-1.77;80.95;98308.14;226117;1275;23305;-76
2023/11/26 21:27:02;;;;;;;17.70;9.30;;;;;;;-1.73;81.02;98308.61;226224;1273;22714;-76
2023/11/26 21:32:04;;;;;;;18.60;10.40;;;;;;;-1.70;81.07;98311.95;226216;1275;22529;-74
2023/11/26 21:37:06;;;;;;;19.20;10.50;;;;;;;-1.65;81.03;98308.13;226074;1276;25287;-77
2023/11/26 21:42:09;;;;;;;17.40;9.40;;;;;;;-1.62;80.83;98305.05;226205;1275;22543;-74
2023/11/26 21:47:11;;;;;;;16.60;9.90;;;;;;;-1.59;81.14;98295.83;226201;1275;24229;-74
2023/11/26 21:52:16;;;;;;;16.90;8.80;;;;;;;-1.56;80.96;98293.37;226090;1275;25319;-74
2023/11/26 21:57:18;;;;;;;11.90;7.50;;;;;;;-1.55;80.87;98293.13;226202;1276;22725;-74
2023/11/26 22:02:20;;;;;;;15.00;8.10;;;;;;;-1.59;80.79;98292.23;226071;1276;22540;-74
2023/11/26 22:07:26;;;;;;;14.70;8.70;;;;;;;-1.59;80.65;98288.98;226198;1276;24966;-74
2023/11/26 22:12:28;;;;;;;17.30;9.50;;;;;;;-1.61;80.46;98281.83;226094;1276;22920;-74
2023/11/26 22:17:31;;;;;;;19.30;10.20;;;;;;;-1.60;80.43;98278.52;226273;1275;22550;-74
2023/11/26 22:22:33;;;;;;;15.60;9.80;;;;;;;-1.63;80.46;98281.83;226227;1276;22598;-75
2023/11/26 22:27:35;;;;;;;16.30;9.00;;;;;;;-1.63;80.34;98279.44;226118;1275;22715;-74
2023/11/26 22:32:38;;;;;;;16.80;8.40;;;;;;;-1.62;80.48;98281.38;226194;1269;22569;-74
2023/11/26 22:37:41;;;;;;;13.80;8.90;;;;;;;-1.59;80.26;98275.34;226149;1272;24574;-74
2023/11/26 22:42:44;;;;;;;13.60;8.20;;;;;;;-1.57;80.36;98274.42;226103;1275;22551;-76
2023/11/26 22:47:47;;;;;;;10.90;7.20;;;;;;;-1.56;80.09;98266.27;226114;1276;23046;-74
2023/11/26 22:52:49;;;;;;;11.60;7.30;;;;;;;-1.55;79.85;98259.84;226279;1275;25532;-75
2023/11/26 22:57:51;;;;;;;15.10;8.90;;;;;;;-1.55;79.97;98251.99;226102;1276;22543;-77
2023/11/26 23:02:53;;;;;;;14.70;8.80;;;;;;;-1.57;79.88;98247.03;226273;1276;22518;-76
2023/11/26 23:07:56;;;;;;;12.30;7.70;;;;;;;-1.67;80.16;98244.88;226053;1260;22539;-76
2023/11/26 23:12:58;;;;;;;13.00;6.80;;;;;;;-1.84;80.10;98241.90;226253;1273;22550;-75
2023/11/26 23:18:00;;;;;;;9.60;6.10;;;;;;;-2.01;79.87;98246.61;226092;1269;22567;-75
2023/11/26 23:23:03;;;;;;;13.20;7.60;;;;;;;-2.11;80.01;98252.80;226190;1275;166302;-75
2023/11/26 23:28:05;;;;;;;10.40;6.00;;;;;;;-2.13;80.26;98248.10;226098;1258;22537;-76
2023/11/26 23:33:08;;;;;;;10.90;5.90;;;;;;;-2.13;80.34;98248.95;226235;1273;22703;-77